Peristerion, Greece
Current Conditions -  °F | °C
As of 6:20 PM on Thursday 23 Oct 2014 (Local Time) from LGEL Reporting Station
Few Clouds Few Clouds  
Wind Chill: 64°   Ceiling: Unl
Heat Index: 64°   Visibility: 6mi
Dew Point: 39°   Wind: 16mph
Humidity: 40%   Direction: 310°NW
Pressure: 29.68"   Gusts: 28mph
Location:  38.02°N, 23.7°E
Report Text: LGEL 231520Z 31014G24KT 9999 FEW025 18/04 Q1005
Loading
Personal Weather Stations






























Interactive Weather Map
Tropical Storm Tracking
New forecast layout! Learn more

10-Day Weather Forecast

Advertisements
Track Severe Weather on mobile